createdAt,value
2018-04-25T00:03:06.133Z,2.00
2018-04-25T00:08:08.800Z,2.10
2018-04-25T00:13:12.214Z,2.30
2018-04-25T00:18:15.485Z,2.20
2018-04-25T00:23:18.088Z,2.10
2018-04-25T00:28:20.604Z,1.83
2018-04-25T00:33:23.117Z,2.17
2018-04-25T00:38:25.634Z,2.23
2018-04-25T00:43:28.489Z,2.27
2018-04-25T00:48:31.020Z,1.90
2018-04-25T00:53:33.560Z,2.67
2018-04-25T00:58:36.269Z,1.83
2018-04-25T01:03:38.875Z,1.97
2018-04-25T01:08:41.502Z,1.87
2018-04-25T01:13:44.010Z,2.10
2018-04-25T01:18:46.514Z,2.30
2018-04-25T01:23:49.412Z,2.30
2018-04-25T01:28:56.457Z,2.20
2018-04-25T01:34:07.769Z,1.77
2018-04-25T01:39:11.072Z,1.90
2018-04-25T01:44:20.231Z,1.83
2018-04-25T01:49:30.835Z,2.77
2018-04-25T01:54:45.386Z,2.13
2018-04-25T01:59:59.650Z,1.80
2018-04-25T02:05:02.213Z,1.70
2018-04-25T02:10:05.064Z,2.03
2018-04-25T02:15:07.642Z,1.90
2018-04-25T02:20:10.974Z,2.23
2018-04-25T02:25:13.501Z,2.17
2018-04-25T02:30:16.011Z,1.70
2018-04-25T02:35:18.671Z,1.93
2018-04-25T02:40:21.446Z,1.70
2018-04-25T02:45:24.420Z,1.67
2018-04-25T02:50:27.006Z,2.10
2018-04-25T02:55:29.539Z,1.50
2018-04-25T03:00:32.065Z,1.83
2018-04-25T03:05:34.560Z,1.80
2018-04-25T03:10:37.120Z,1.67
2018-04-25T03:15:39.640Z,2.00
2018-04-25T03:20:42.175Z,1.77
2018-04-25T03:25:44.798Z,1.60
2018-04-25T03:30:47.344Z,1.73
2018-04-25T03:35:49.857Z,1.77
2018-04-25T03:40:52.760Z,1.40
2018-04-25T03:45:55.707Z,1.60
2018-04-25T03:50:58.400Z,1.63
2018-04-25T03:56:01.044Z,1.50
2018-04-25T04:01:03.741Z,1.33
2018-04-25T04:06:06.267Z,1.90
2018-04-25T04:11:08.755Z,1.40
2018-04-25T04:16:11.251Z,1.70
2018-04-25T04:21:13.867Z,1.13
2018-04-25T04:26:17.207Z,1.50
2018-04-25T04:31:19.829Z,1.50
2018-04-25T04:36:22.567Z,1.50
2018-04-25T04:41:26.197Z,1.80
2018-04-25T04:46:29.516Z,1.80
2018-04-25T04:51:32.036Z,1.37
2018-04-25T04:56:34.596Z,1.20
2018-04-25T05:01:37.605Z,1.57
2018-04-25T05:06:40.889Z,1.30
2018-04-25T05:11:44.045Z,1.50
2018-04-25T05:16:46.893Z,1.20
2018-04-25T05:21:49.655Z,1.30
2018-04-25T05:26:52.157Z,1.37
2018-04-25T05:31:54.936Z,1.33
2018-04-25T05:36:57.456Z,1.40
2018-04-25T05:42:00.115Z,1.30
2018-04-25T05:47:02.682Z,1.43
2018-04-25T05:52:05.811Z,1.67
2018-04-25T05:57:09.125Z,1.40
2018-04-25T06:02:11.735Z,1.47
2018-04-25T06:07:18.148Z,1.40
2018-04-25T06:12:20.752Z,2.47
2018-04-25T06:17:23.383Z,4.07
2018-04-25T06:22:25.899Z,4.07
2018-04-25T06:27:28.588Z,4.20
2018-04-25T06:32:32.301Z,4.60
2018-04-25T06:37:35.050Z,4.10
2018-04-25T06:42:37.695Z,4.40
2018-04-25T06:47:40.546Z,4.40
2018-04-25T06:52:43.236Z,2.60
2018-04-25T06:57:46.101Z,3.00
2018-04-25T07:02:49.411Z,2.60
2018-04-25T07:07:52.737Z,2.30
2018-04-25T07:12:56.108Z,2.00
2018-04-25T07:17:58.672Z,1.80
2018-04-25T07:23:01.276Z,2.67
2018-04-25T07:28:04.217Z,2.57
2018-04-25T07:33:06.811Z,2.20
2018-04-25T07:38:09.442Z,1.60
2018-04-25T07:43:11.983Z,1.80
2018-04-25T07:48:14.535Z,1.83
2018-04-25T07:53:17.131Z,1.93
2018-04-25T07:58:20.515Z,1.33
2018-04-25T08:03:23.033Z,2.20
2018-04-25T08:08:25.696Z,1.80
2018-04-25T08:13:40.486Z,2.43
2018-04-25T08:18:55.010Z,2.63
2018-04-25T08:23:57.538Z,2.00
2018-04-25T08:29:00.227Z,1.90
2018-04-25T08:34:02.862Z,2.03
2018-04-25T08:39:05.422Z,2.23
2018-04-25T08:44:08.504Z,1.53
2018-04-25T08:49:11.901Z,2.00
2018-04-25T08:54:14.619Z,1.97
2018-04-25T08:59:17.270Z,1.50
2018-04-25T09:04:19.798Z,1.50
2018-04-25T09:09:22.356Z,1.50
2018-04-25T09:14:25.069Z,1.83
2018-04-25T09:19:27.866Z,1.90
2018-04-25T09:24:30.503Z,1.93
2018-04-25T09:29:33.287Z,1.60
2018-04-25T09:34:35.815Z,1.70
2018-04-25T09:39:38.412Z,1.80
2018-04-25T09:44:41.686Z,1.57
2018-04-25T09:49:44.213Z,1.50
2018-04-25T09:54:46.746Z,1.30
2018-04-25T09:59:50.099Z,1.50
2018-04-25T10:04:52.977Z,1.73
2018-04-25T10:09:57.501Z,1.40
2018-04-25T10:15:00.820Z,1.47
2018-04-25T10:20:04.073Z,1.60
2018-04-25T10:25:06.597Z,1.40
2018-04-25T10:30:09.133Z,3.17
2018-04-25T10:35:12.186Z,1.43
2018-04-25T10:40:14.787Z,1.37
2018-04-25T10:45:17.401Z,1.50
2018-04-25T10:50:20.740Z,1.43
2018-04-25T10:55:23.440Z,1.27
2018-04-25T11:00:26.113Z,1.30
2018-04-25T11:05:28.747Z,1.17
2018-04-25T11:10:31.323Z,1.23
2018-04-25T11:15:33.908Z,1.23
2018-04-25T11:20:37.935Z,1.50
2018-04-25T11:25:40.632Z,1.30
2018-04-25T11:30:43.208Z,1.53
2018-04-25T11:35:46.181Z,1.40
2018-04-25T11:40:48.881Z,1.10
2018-04-25T11:45:51.496Z,1.30
2018-04-25T11:50:54.288Z,1.80
2018-04-25T11:55:56.830Z,1.60
2018-04-25T12:01:00.393Z,1.47
2018-04-25T12:06:02.949Z,1.57
2018-04-25T12:11:05.504Z,1.60
2018-04-25T12:16:08.186Z,1.90
2018-04-25T12:21:10.873Z,1.77
2018-04-25T12:26:13.428Z,1.77
2018-04-25T12:31:16.075Z,1.60
2018-04-25T12:36:18.797Z,1.60
2018-04-25T12:41:22.991Z,1.67
2018-04-25T12:46:25.731Z,1.67
2018-04-25T12:51:28.875Z,1.93
2018-04-25T12:56:31.461Z,1.77
2018-04-25T13:01:35.508Z,1.20
2018-04-25T13:06:38.029Z,1.30
2018-04-25T13:11:40.645Z,1.40
2018-04-25T13:16:44.044Z,1.40
2018-04-25T13:21:46.586Z,1.60
2018-04-25T13:26:49.282Z,1.30
2018-04-25T13:31:52.175Z,1.20
2018-04-25T13:36:54.744Z,1.40
2018-04-25T13:41:57.365Z,1.30
2018-04-25T13:47:01.770Z,1.23
2018-04-25T13:52:04.295Z,0.90
2018-04-25T13:57:07.627Z,1.30
2018-04-25T14:02:10.153Z,1.00
2018-04-25T14:07:12.750Z,1.27
2018-04-25T14:12:15.401Z,1.20
2018-04-25T14:17:18.811Z,0.90
2018-04-25T14:22:22.287Z,0.90
2018-04-25T14:27:24.857Z,1.20
2018-04-25T14:32:27.390Z,1.23
2018-04-25T14:37:30.249Z,1.30
2018-04-25T14:42:33.155Z,1.27
2018-04-25T14:47:35.717Z,1.30
2018-04-25T14:52:39.025Z,1.43
2018-04-25T14:57:42.167Z,0.87
2018-04-25T15:02:44.704Z,1.20
2018-04-25T15:07:47.271Z,1.60
2018-04-25T15:12:49.785Z,1.23
2018-04-25T15:17:52.325Z,1.00
2018-04-25T15:22:55.020Z,1.20
2018-04-25T15:27:57.561Z,1.23
2018-04-25T15:33:00.230Z,1.57
2018-04-25T15:38:02.805Z,1.52
2018-04-25T15:43:05.426Z,1.60
2018-04-25T15:48:08.186Z,2.93
2018-04-25T15:53:11.905Z,2.50
2018-04-25T15:58:15.674Z,1.83
2018-04-25T16:03:18.358Z,1.90
2018-04-25T16:08:21.082Z,2.60
2018-04-25T16:13:24.173Z,2.10
2018-04-25T16:18:26.741Z,1.33
2018-04-25T16:23:29.432Z,1.63
2018-04-25T16:28:32.607Z,1.70
2018-04-25T16:33:35.315Z,1.50
2018-04-25T16:38:37.823Z,2.00
2018-04-25T16:43:41.239Z,1.73
2018-04-25T16:48:44.017Z,1.40
2018-04-25T16:53:46.853Z,1.20
2018-04-25T16:58:50.383Z,1.40
2018-04-25T17:03:53.037Z,1.40
2018-04-25T17:08:58.450Z,1.27
2018-04-25T17:14:01.328Z,1.03
2018-04-25T17:19:04.628Z,1.30
2018-04-25T17:24:08.705Z,1.30
2018-04-25T17:29:11.223Z,1.40
2018-04-25T17:34:13.774Z,1.33
2018-04-25T17:39:16.317Z,1.30
2018-04-25T17:44:19.146Z,1.20
2018-04-25T17:49:21.927Z,1.50
2018-04-25T17:54:25.404Z,1.00
2018-04-25T17:59:27.953Z,1.10
2018-04-25T18:04:30.634Z,1.33
2018-04-25T18:09:35.109Z,1.40
2018-04-25T18:14:37.733Z,1.90
2018-04-25T18:19:40.302Z,1.40
2018-04-25T18:24:42.853Z,1.37
2018-04-25T18:29:45.485Z,1.70
2018-04-25T18:34:48.199Z,1.57
2018-04-25T18:39:50.824Z,2.10
2018-04-25T18:44:53.548Z,3.13
2018-04-25T18:49:56.107Z,2.63
2018-04-25T18:54:59.574Z,2.60
2018-04-25T19:00:02.884Z,2.13
2018-04-25T19:05:06.908Z,1.70
2018-04-25T19:10:10.304Z,2.37
2018-04-25T19:15:13.328Z,2.30
2018-04-25T19:20:16.287Z,2.50
2018-04-25T19:25:18.897Z,1.87
2018-04-25T19:30:21.832Z,2.83
2018-04-25T19:35:25.371Z,1.93
2018-04-25T19:40:27.948Z,3.70
2018-04-25T19:45:30.579Z,2.60
2018-04-25T19:50:33.388Z,2.60
2018-04-25T19:55:36.039Z,2.17
2018-04-25T20:00:38.681Z,2.10
2018-04-25T20:05:41.703Z,2.30
2018-04-25T20:10:44.619Z,1.87
2018-04-25T20:15:47.219Z,1.87
2018-04-25T20:20:49.870Z,2.20
2018-04-25T20:25:52.846Z,1.90
2018-04-25T20:30:56.861Z,2.13
2018-04-25T20:35:59.456Z,2.03
2018-04-25T20:41:02.725Z,2.10
2018-04-25T20:46:05.767Z,2.10
2018-04-25T20:51:09.243Z,2.00
2018-04-25T20:56:11.831Z,1.90
2018-04-25T21:01:14.406Z,1.93
2018-04-25T21:06:17.972Z,2.13
2018-04-25T21:11:20.584Z,1.97
2018-04-25T21:16:23.134Z,2.10
2018-04-25T21:21:25.803Z,2.57
2018-04-25T21:26:28.502Z,2.20
2018-04-25T21:31:31.072Z,2.50
2018-04-25T21:36:33.708Z,2.67
2018-04-25T21:41:36.578Z,2.63
2018-04-25T21:46:39.234Z,2.33
2018-04-25T21:51:41.947Z,2.90
2018-04-25T21:56:45.324Z,2.67
2018-04-25T22:01:47.936Z,2.40
2018-04-25T22:06:50.524Z,2.67
2018-04-25T22:11:53.227Z,2.90
2018-04-25T22:16:55.909Z,3.40
2018-04-25T22:21:58.426Z,3.60
2018-04-25T22:27:00.930Z,3.30
2018-04-25T22:32:04.185Z,3.53
2018-04-25T22:37:06.717Z,3.40
2018-04-25T22:42:09.260Z,3.80
2018-04-25T22:47:12.019Z,3.70
2018-04-25T22:52:14.589Z,3.57
2018-04-25T22:57:17.253Z,3.90
2018-04-25T23:02:20.329Z,3.50
2018-04-25T23:07:22.865Z,3.93
2018-04-25T23:12:25.553Z,4.00
2018-04-25T23:17:28.239Z,4.37
2018-04-25T23:22:31.059Z,4.70
2018-04-25T23:27:33.581Z,4.03
2018-04-25T23:32:36.353Z,3.77
2018-04-25T23:37:39.133Z,4.20
2018-04-25T23:42:41.682Z,4.00
2018-04-25T23:47:44.256Z,3.77
2018-04-25T23:52:46.796Z,4.20
2018-04-25T23:57:49.372Z,5.00
